Sainte-Anne-Des-Monts, Canada
Current Conditions -  °F | °C
As of 8:00 PM on Friday 28 Nov 2014 (Local Time) from CYZV Reporting Station
Overcast Overcast  
Wind Chill: 10°   Ceiling: 8000
Heat Index: 10°   Visibility: 15mi
Dew Point:   Wind: 3mph
Humidity: 73%   Direction: 10°N
Pressure: 30.04"   Gusts: NA
Location:  49.12°N, 66.48°W
Report Text: CYZV 290100Z 01003KT 15SM OVC080 M12/M16 A3004 RMK AC8 SLP177
Loading
Personal Weather Stations






























Interactive Weather Map New forecast layout! Learn more

10-Day Weather Forecast

Advertisements
Track Severe Weather on mobile